You are not logged in, Click here to log in
Tromsø Airport / ENTC Tromsø
ICAO: ENTC Country: Tromsø
Latitude: 69.6833 Longitude: 18.9189
Total Arrivals: 3 Total Departures: 2
Latest Arrival: FS25 (ENSB-ENTC)ALAN. LIU Latest Departure: FS12 (ENTC-ENGM)CHU. CHUHAO
Scenery: http://en.wikipedia.org/wiki/Stord_Airport%2C_S%C3%B8rstokken
METAR : ENTC 131050Z 25007KT CAVOK 00/M03 Q0988 NOSIG RMK WIND 2600FT 18010KT

Tromsø Airport

You are accessing this site from IP address 100.26.176.182. Virtual Airline. CMS by phpVMS.Website designed by Zumeweb and edited by Theo Bearman.
There is 0 User(s) Online: | and 6 Guest(s) Online.
All information on this site is for fight simulation purposes only. This site is for flight logging for pilots of Virtual Airline&模擬飛行論壇 FlySim only.